Oshoto, Wyoming
Current Conditions -  °F | °C
As of 12:53 AM on Sunday 23 Nov 2014 (Local Time) from KGCC Reporting Station
Clear Clear  
Wind Chill: 21°   Ceiling: Unl
Heat Index: 29°   Visibility: 10mi
Dew Point: 17°   Wind: 8mph
Humidity: 61%   Direction: 290°WNW
Pressure: 29.64"   Gusts: NA
Location:  44.3253°N, 104.815°W
Report Text: KGCC 230753Z AUTO 29007KT 10SM CLR M02/M08 A2964 RMK AO2 SLP049 T10171083
Loading
Personal Weather Stations






























Interactive Weather Map New forecast layout! Learn more

10-Day Weather Forecast

Advertisements
Track Severe Weather on mobile